createdAt,value
2022-09-12T04:52:59.037Z,79.05
2022-09-12T04:58:01.354Z,86.93
2022-09-12T05:03:03.041Z,86.93
2022-09-12T05:08:04.717Z,83.18
2022-09-12T05:13:06.323Z,79.00
2022-09-12T05:18:07.945Z,75.72
2022-09-12T05:23:09.738Z,80.95
2022-09-12T05:28:11.999Z,86.68
2022-09-12T05:33:14.745Z,82.90
2022-09-12T05:38:16.356Z,78.50
2022-09-12T05:43:18.093Z,80.57
2022-09-12T05:48:19.816Z,81.18
2022-09-12T05:53:22.754Z,76.80
2022-09-12T05:58:24.418Z,79.38
2022-09-12T06:03:26.273Z,70.70
2022-09-12T06:08:28.001Z,77.80
2022-09-12T06:13:32.385Z,78.43
2022-09-12T06:18:38.456Z,74.68
2022-09-12T06:23:40.511Z,76.72
2022-09-12T06:28:44.889Z,84.47
2022-09-12T06:33:50.083Z,80.38
2022-09-12T06:39:00.973Z,74.90
2022-09-12T06:44:03.295Z,73.82
2022-09-12T06:49:05.373Z,79.80
2022-09-12T06:54:07.348Z,71.90
2022-09-12T06:59:09.330Z,70.40
2022-09-12T07:04:11.554Z,71.88
2022-09-12T07:09:17.003Z,64.93
2022-09-12T07:14:19.014Z,68.35
2022-09-12T07:19:20.961Z,64.90
2022-09-12T07:24:22.777Z,57.88
2022-09-12T07:29:36.500Z,68.25
2022-09-12T07:34:38.974Z,61.17
2022-09-12T07:39:40.649Z,52.25
2022-09-12T07:44:42.353Z,62.50
2022-09-12T07:49:44.325Z,49.25
2022-09-12T07:54:46.195Z,48.30
2022-09-12T07:59:52.985Z,50.28
2022-09-12T08:04:55.049Z,42.88
2022-09-12T08:09:57.185Z,37.47
2022-09-12T08:14:59.128Z,40.22
2022-09-12T08:20:00.981Z,41.08
2022-09-12T08:25:02.787Z,37.42
2022-09-12T08:30:06.251Z,37.33
2022-09-12T08:35:08.243Z,39.75
2022-09-12T08:40:16.846Z,35.58
2022-09-12T08:45:51.900Z,35.92
2022-09-12T08:50:53.836Z,34.95
2022-09-12T08:56:03.920Z,31.85
2022-09-12T09:01:28.868Z,29.83
2022-09-12T09:07:07.656Z,37.20
2022-09-12T09:12:33.594Z,36.22
2022-09-12T09:17:41.328Z,32.65
2022-09-12T09:22:47.626Z,31.77
2022-09-12T09:28:01.091Z,30.97
2022-09-12T09:33:04.667Z,28.25
2022-09-12T09:38:23.458Z,34.15
2022-09-12T09:43:29.211Z,27.65
2022-09-12T09:48:36.849Z,35.20
2022-09-12T09:53:47.868Z,26.25
2022-09-12T09:58:49.664Z,26.17
2022-09-12T10:03:55.947Z,23.92
2022-09-12T10:09:18.900Z,20.25
2022-09-12T10:14:35.142Z,19.85
2022-09-12T10:19:40.268Z,18.37
2022-09-12T10:24:46.840Z,13.05
2022-09-12T10:29:53.586Z,17.88
2022-09-12T10:35:03.794Z,13.52
2022-09-12T10:40:28.915Z,13.00
2022-09-12T10:45:36.446Z,11.95
2022-09-12T10:50:42.818Z,12.75
2022-09-12T10:55:55.559Z,10.07
2022-09-12T11:01:10.094Z,10.70
2022-09-12T11:06:20.698Z,9.73
2022-09-12T11:11:39.869Z,12.10
2022-09-12T11:16:54.301Z,16.27
2022-09-12T11:22:32.137Z,16.67
2022-09-12T11:27:33.884Z,9.52
2022-09-12T11:32:47.801Z,9.20
2022-09-12T11:38:21.686Z,8.40
2022-09-12T11:43:33.169Z,11.00
2022-09-12T11:48:46.646Z,10.27
2022-09-12T11:54:03.472Z,7.05
2022-09-12T11:59:13.897Z,10.38
2022-09-12T12:04:20.727Z,9.40
2022-09-12T12:09:23.542Z,12.43
2022-09-12T12:14:36.259Z,11.38
2022-09-12T12:19:38.121Z,7.97
2022-09-12T12:25:11.772Z,10.00
2022-09-12T12:30:31.552Z,8.95
2022-09-12T12:35:40.461Z,9.20
2022-09-12T12:40:42.170Z,8.43
2022-09-12T12:45:48.764Z,10.68
2022-09-12T12:55:54.765Z,6.57
2022-09-12T13:01:17.057Z,6.70
2022-09-12T13:06:43.126Z,11.23
2022-09-12T13:11:45.225Z,6.30
2022-09-12T13:17:01.224Z,14.55
2022-09-12T13:22:11.813Z,11.27
2022-09-12T13:27:21.079Z,11.38
2022-09-12T13:32:22.851Z,11.80
2022-09-12T13:38:02.092Z,8.18
2022-09-12T13:43:20.656Z,5.25
2022-09-12T13:48:25.336Z,11.00
2022-09-12T13:53:36.038Z,4.65
2022-09-12T13:58:37.793Z,7.63
2022-09-12T14:04:00.605Z,5.30
2022-09-12T14:09:12.906Z,5.13
2022-09-12T14:14:27.766Z,3.53
2022-09-12T14:19:29.534Z,5.85
2022-09-12T14:24:32.389Z,5.25
2022-09-12T14:29:35.062Z,5.10
2022-09-12T14:34:36.820Z,5.78
2022-09-12T14:39:42.874Z,7.88
2022-09-12T14:44:56.548Z,5.82
2022-09-12T14:49:58.275Z,18.75
2022-09-12T14:55:02.702Z,8.23
2022-09-12T15:00:13.857Z,17.63
2022-09-12T15:05:22.325Z,10.55
2022-09-12T15:10:34.394Z,5.70
2022-09-12T15:15:40.428Z,11.93
2022-09-12T15:20:44.215Z,6.70
2022-09-12T15:25:46.140Z,3.80
2022-09-12T15:30:50.543Z,7.35
2022-09-12T15:35:53.078Z,5.03
2022-09-12T15:40:55.067Z,9.02
2022-09-12T15:45:59.136Z,5.63
2022-09-12T15:51:01.777Z,5.22
2022-09-12T15:56:03.541Z,20.95
2022-09-12T16:01:05.694Z,6.13
2022-09-12T16:06:09.225Z,34.28
2022-09-12T16:11:21.226Z,5.68
2022-09-12T16:16:23.502Z,5.45
2022-09-12T16:21:25.642Z,7.32
2022-09-12T16:26:27.502Z,5.88
2022-09-12T16:31:29.601Z,6.53
2022-09-12T16:36:31.445Z,5.05
2022-09-12T16:41:33.238Z,6.15
2022-09-12T16:46:35.070Z,6.32
2022-09-12T16:51:36.969Z,8.77
2022-09-12T16:56:38.609Z,9.25
2022-09-12T17:01:40.351Z,5.63
2022-09-12T17:06:42.482Z,5.93
2022-09-12T17:11:45.509Z,5.93
2022-09-12T17:16:51.691Z,6.65
2022-09-12T17:21:54.325Z,5.30
2022-09-12T17:26:57.120Z,4.13
2022-09-12T17:31:59.683Z,2.97
2022-09-12T17:37:01.400Z,6.85
2022-09-12T17:42:03.647Z,9.52
2022-09-12T17:47:05.539Z,6.82
2022-09-12T17:52:07.176Z,10.70
2022-09-12T17:57:08.948Z,4.00
2022-09-12T18:02:13.872Z,6.55
2022-09-12T18:07:18.320Z,5.70
2022-09-12T18:12:20.037Z,8.27
2022-09-12T18:17:21.768Z,4.88
2022-09-12T18:22:24.463Z,4.65
2022-09-12T18:27:26.092Z,6.85
2022-09-12T18:32:27.747Z,7.82
2022-09-12T18:37:29.357Z,5.05
2022-09-12T18:42:30.987Z,3.60
2022-09-12T18:47:33.814Z,5.05
2022-09-12T18:52:35.449Z,5.90
2022-09-12T18:57:40.562Z,9.35
2022-09-12T19:02:42.193Z,6.15
2022-09-12T19:07:43.832Z,7.10
2022-09-12T19:12:45.570Z,9.30
2022-09-12T19:17:47.657Z,6.75
2022-09-12T19:22:49.453Z,11.52
2022-09-12T19:27:51.272Z,9.85
2022-09-12T19:32:52.865Z,7.43
2022-09-12T19:37:54.619Z,8.10
2022-09-12T19:42:56.282Z,8.60
2022-09-12T19:47:57.933Z,6.20
2022-09-12T19:52:59.683Z,7.63
2022-09-12T19:58:02.215Z,12.43
2022-09-12T20:03:05.785Z,14.65
2022-09-12T20:08:08.225Z,13.07
2022-09-12T20:13:10.144Z,12.10
2022-09-12T20:18:12.063Z,22.38
2022-09-12T20:23:13.990Z,11.75
2022-09-12T20:28:15.813Z,18.42
2022-09-12T20:33:17.655Z,17.67
2022-09-12T20:38:19.299Z,14.45
2022-09-12T20:43:21.642Z,22.15
2022-09-12T20:48:23.779Z,14.00
2022-09-12T20:53:25.828Z,16.63
2022-09-12T20:58:27.490Z,17.55
2022-09-12T21:03:29.122Z,16.02
2022-09-12T21:08:32.352Z,14.77
2022-09-12T21:13:34.373Z,13.55
2022-09-12T21:18:37.350Z,18.55
2022-09-12T21:23:39.641Z,12.85
2022-09-12T21:28:41.389Z,18.65
2022-09-12T21:33:43.444Z,11.68
2022-09-12T21:38:45.170Z,11.65
2022-09-12T21:43:46.914Z,17.48
2022-09-12T21:48:48.519Z,14.20
2022-09-12T21:53:50.236Z,11.02
2022-09-12T21:58:51.957Z,14.57
2022-09-12T22:03:53.734Z,11.52
2022-09-12T22:08:56.259Z,14.07
2022-09-12T22:13:58.904Z,13.20
2022-09-12T22:19:00.643Z,13.07
2022-09-12T22:24:21.357Z,14.20
2022-09-12T22:29:23.712Z,12.20
2022-09-12T22:34:27.059Z,14.82
2022-09-12T22:39:28.763Z,12.45
2022-09-12T22:44:30.938Z,13.88
2022-09-12T22:49:32.597Z,16.77
2022-09-12T22:54:34.285Z,16.42
2022-09-12T22:59:36.006Z,13.77
2022-09-12T23:04:38.668Z,19.85
2022-09-12T23:09:40.533Z,15.40
2022-09-12T23:14:42.339Z,14.70
2022-09-12T23:19:43.959Z,16.95
2022-09-12T23:24:45.948Z,20.52
2022-09-12T23:29:52.262Z,16.98
2022-09-12T23:34:53.880Z,13.73
2022-09-12T23:39:55.700Z,21.77
2022-09-12T23:44:57.567Z,20.90
2022-09-12T23:49:59.280Z,14.68
2022-09-12T23:55:00.871Z,20.90
